sensor_id;sensor_type;location;lat;lon;timestamp;pressure;altitude;pressure_sealevel;temperature;humidity
78613;BME280;67933;51.060;3.638;2023-03-01T00:01:58;103290.44;;;-2.04;74.19
78613;BME280;67933;51.060;3.638;2023-03-01T00:04:23;103280.91;;;-2.04;75.01
78613;BME280;67933;51.060;3.638;2023-03-01T00:06:49;103286.31;;;-1.98;75.11
78613;BME280;67933;51.060;3.638;2023-03-01T00:09:15;103278.41;;;-1.74;75.64
78613;BME280;67933;51.060;3.638;2023-03-01T00:11:40;103281.56;;;-1.57;74.87
78613;BME280;67933;51.060;3.638;2023-03-01T00:14:06;103276.53;;;-1.51;74.79
78613;BME280;67933;51.060;3.638;2023-03-01T00:16:39;103275.09;;;-1.41;75.17
78613;BME280;67933;51.060;3.638;2023-03-01T00:19:06;103271.91;;;-1.33;74.83
78613;BME280;67933;51.060;3.638;2023-03-01T00:21:32;103271.97;;;-1.30;74.97
78613;BME280;67933;51.060;3.638;2023-03-01T00:23:58;103270.41;;;-1.25;75.59
78613;BME280;67933;51.060;3.638;2023-03-01T00:26:25;103277.56;;;-1.18;75.45
78613;BME280;67933;51.060;3.638;2023-03-01T00:28:51;103281.94;;;-1.17;76.54
78613;BME280;67933;51.060;3.638;2023-03-01T00:31:20;103282.91;;;-1.13;76.37
78613;BME280;67933;51.060;3.638;2023-03-01T00:33:46;103277.75;;;-1.11;76.98
78613;BME280;67933;51.060;3.638;2023-03-01T00:36:13;103271.53;;;-1.15;76.93
78613;BME280;67933;51.060;3.638;2023-03-01T00:38:41;103271.47;;;-1.18;77.94
78613;BME280;67933;51.060;3.638;2023-03-01T00:41:10;103267.28;;;-1.13;77.93
78613;BME280;67933;51.060;3.638;2023-03-01T00:43:36;103265.88;;;-1.00;78.34
78613;BME280;67933;51.060;3.638;2023-03-01T00:46:07;103271.31;;;-0.94;78.74
78613;BME280;67933;51.060;3.638;2023-03-01T00:48:34;103273.75;;;-0.99;77.93
78613;BME280;67933;51.060;3.638;2023-03-01T00:51:07;103255.41;;;-1.03;78.74
78613;BME280;67933;51.060;3.638;2023-03-01T00:53:34;103252.75;;;-1.05;79.25
78613;BME280;67933;51.060;3.638;2023-03-01T00:55:59;103249.47;;;-0.98;78.88
78613;BME280;67933;51.060;3.638;2023-03-01T00:58:25;103252.13;;;-0.96;79.31
78613;BME280;67933;51.060;3.638;2023-03-01T01:00:51;103250.47;;;-0.94;79.67
78613;BME280;67933;51.060;3.638;2023-03-01T01:03:18;103258.44;;;-0.88;79.76
78613;BME280;67933;51.060;3.638;2023-03-01T01:05:43;103249.69;;;-0.90;79.27
78613;BME280;67933;51.060;3.638;2023-03-01T01:08:08;103256.63;;;-0.91;79.47
78613;BME280;67933;51.060;3.638;2023-03-01T01:10:34;103260.94;;;-0.91;79.49
78613;BME280;67933;51.060;3.638;2023-03-01T01:13:00;103252.47;;;-0.84;79.81
78613;BME280;67933;51.060;3.638;2023-03-01T01:15:26;103244.75;;;-0.81;79.61
78613;BME280;67933;51.060;3.638;2023-03-01T01:17:51;103243.03;;;-0.81;79.31
78613;BME280;67933;51.060;3.638;2023-03-01T01:20:17;103249.22;;;-0.75;79.93
78613;BME280;67933;51.060;3.638;2023-03-01T01:22:43;103243.91;;;-0.80;79.61
78613;BME280;67933;51.060;3.638;2023-03-01T01:25:08;103231.41;;;-0.93;80.13
78613;BME280;67933;51.060;3.638;2023-03-01T01:27:34;103247.03;;;-0.92;81.19
78613;BME280;67933;51.060;3.638;2023-03-01T01:29:59;103239.31;;;-0.89;81.08
78613;BME280;67933;51.060;3.638;2023-03-01T01:32:25;103235.78;;;-0.91;81.36
78613;BME280;67933;51.060;3.638;2023-03-01T01:34:50;103240.09;;;-0.91;82.01
78613;BME280;67933;51.060;3.638;2023-03-01T01:37:15;103234.13;;;-0.89;81.39
78613;BME280;67933;51.060;3.638;2023-03-01T01:39:41;103225.38;;;-0.91;81.49
78613;BME280;67933;51.060;3.638;2023-03-01T01:42:15;103230.47;;;-0.95;81.15
78613;BME280;67933;51.060;3.638;2023-03-01T01:44:42;103230.97;;;-1.07;82.07
78613;BME280;67933;51.060;3.638;2023-03-01T01:47:14;103231.66;;;-1.14;81.68
78613;BME280;67933;51.060;3.638;2023-03-01T01:52:27;103226.59;;;-1.38;82.75
78613;BME280;67933;51.060;3.638;2023-03-01T01:57:36;103207.03;;;-1.53;81.99
78613;BME280;67933;51.060;3.638;2023-03-01T02:00:09;103204.50;;;-1.80;81.61
78613;BME280;67933;51.060;3.638;2023-03-01T02:02:36;103213.78;;;-1.88;83.28
78613;BME280;67933;51.060;3.638;2023-03-01T02:05:26;103207.06;;;-1.82;83.79
78613;BME280;67933;51.060;3.638;2023-03-01T02:07:53;103209.06;;;-1.73;83.61
78613;BME280;67933;51.060;3.638;2023-03-01T02:10:21;103204.22;;;-1.61;84.43
78613;BME280;67933;51.060;3.638;2023-03-01T02:12:48;103198.47;;;-1.51;83.70
78613;BME280;67933;51.060;3.638;2023-03-01T02:15:13;103199.56;;;-1.43;83.89
78613;BME280;67933;51.060;3.638;2023-03-01T02:17:39;103197.91;;;-1.41;83.45
78613;BME280;67933;51.060;3.638;2023-03-01T02:20:26;103204.00;;;-1.39;83.64
78613;BME280;67933;51.060;3.638;2023-03-01T02:22:53;103203.09;;;-1.41;83.37
78613;BME280;67933;51.060;3.638;2023-03-01T02:30:39;103190.25;;;-1.35;83.77
78613;BME280;67933;51.060;3.638;2023-03-01T02:33:26;103178.19;;;-1.33;83.14
78613;BME280;67933;51.060;3.638;2023-03-01T02:35:53;103172.00;;;-1.36;83.74
78613;BME280;67933;51.060;3.638;2023-03-01T02:38:19;103170.28;;;-1.36;83.45
78613;BME280;67933;51.060;3.638;2023-03-01T02:40:45;103163.47;;;-1.31;83.41
78613;BME280;67933;51.060;3.638;2023-03-01T02:43:12;103172.16;;;-1.30;83.29
78613;BME280;67933;51.060;3.638;2023-03-01T02:45:47;103155.59;;;-1.34;83.05
78613;BME280;67933;51.060;3.638;2023-03-01T02:48:13;103153.72;;;-1.38;84.28
78613;BME280;67933;51.060;3.638;2023-03-01T02:51:10;103156.41;;;-1.35;84.41
78613;BME280;67933;51.060;3.638;2023-03-01T02:56:27;103136.34;;;-1.39;84.05
78613;BME280;67933;51.060;3.638;2023-03-01T02:58:54;103139.81;;;-1.40;84.64
78613;BME280;67933;51.060;3.638;2023-03-01T03:01:20;103142.34;;;-1.41;83.99
78613;BME280;67933;51.060;3.638;2023-03-01T03:03:46;103138.03;;;-1.41;84.24
78613;BME280;67933;51.060;3.638;2023-03-01T03:06:12;103143.09;;;-1.45;84.23
78613;BME280;67933;51.060;3.638;2023-03-01T03:08:37;103150.84;;;-1.47;85.04
78613;BME280;67933;51.060;3.638;2023-03-01T03:11:03;103151.88;;;-1.42;85.05
78613;BME280;67933;51.060;3.638;2023-03-01T03:13:28;103148.50;;;-1.38;84.86
78613;BME280;67933;51.060;3.638;2023-03-01T03:15:55;103144.13;;;-1.39;84.59
78613;BME280;67933;51.060;3.638;2023-03-01T03:18:21;103150.28;;;-1.37;85.19
78613;BME280;67933;51.060;3.638;2023-03-01T03:20:48;103149.34;;;-1.39;84.89
78613;BME280;67933;51.060;3.638;2023-03-01T03:23:18;103141.59;;;-1.37;85.31
78613;BME280;67933;51.060;3.638;2023-03-01T03:25:48;103138.94;;;-1.39;85.64
78613;BME280;67933;51.060;3.638;2023-03-01T03:28:14;103130.25;;;-1.39;85.74
78613;BME280;67933;51.060;3.638;2023-03-01T03:30:41;103138.03;;;-1.41;85.56
78613;BME280;67933;51.060;3.638;2023-03-01T03:33:07;103123.91;;;-1.49;85.93
78613;BME280;67933;51.060;3.638;2023-03-01T03:35:38;103128.25;;;-1.49;86.07
78613;BME280;67933;51.060;3.638;2023-03-01T03:38:06;103134.22;;;-1.52;85.71
78613;BME280;67933;51.060;3.638;2023-03-01T03:40:39;103123.91;;;-1.49;85.69
78613;BME280;67933;51.060;3.638;2023-03-01T03:43:10;103124.81;;;-1.48;85.73
78613;BME280;67933;51.060;3.638;2023-03-01T03:45:37;103130.69;;;-1.56;86.29
78613;BME280;67933;51.060;3.638;2023-03-01T03:48:04;103133.28;;;-1.56;85.90
78613;BME280;67933;51.060;3.638;2023-03-01T03:50:31;103136.56;;;-1.61;86.33
78613;BME280;67933;51.060;3.638;2023-03-01T03:52:57;103130.44;;;-1.63;86.76
78613;BME280;67933;51.060;3.638;2023-03-01T03:55:22;103144.47;;;-1.58;87.14
78613;BME280;67933;51.060;3.638;2023-03-01T03:57:48;103142.03;;;-1.52;87.04
78613;BME280;67933;51.060;3.638;2023-03-01T04:00:21;103148.91;;;-1.54;86.88
78613;BME280;67933;51.060;3.638;2023-03-01T04:02:50;103143.63;;;-1.57;87.07
78613;BME280;67933;51.060;3.638;2023-03-01T04:05:17;103145.34;;;-1.58;86.86
78613;BME280;67933;51.060;3.638;2023-03-01T04:07:44;103138.09;;;-1.68;86.72
78613;BME280;67933;51.060;3.638;2023-03-01T04:10:12;103132.13;;;-1.65;87.20
78613;BME280;67933;51.060;3.638;2023-03-01T04:12:39;103131.13;;;-1.69;86.82
78613;BME280;67933;51.060;3.638;2023-03-01T04:15:07;103137.06;;;-1.74;86.68
78613;BME280;67933;51.060;3.638;2023-03-01T04:17:40;103129.84;;;-1.83;86.80
78613;BME280;67933;51.060;3.638;2023-03-01T04:20:08;103128.66;;;-1.94;86.79
78613;BME280;67933;51.060;3.638;2023-03-01T04:22:34;103121.34;;;-2.06;86.70
78613;BME280;67933;51.060;3.638;2023-03-01T04:25:00;103123.78;;;-2.12;87.27
78613;BME280;67933;51.060;3.638;2023-03-01T04:27:35;103125.38;;;-2.17;86.86
78613;BME280;67933;51.060;3.638;2023-03-01T04:30:03;103132.41;;;-2.13;87.58
78613;BME280;67933;51.060;3.638;2023-03-01T04:32:29;103126.03;;;-2.22;86.60
78613;BME280;67933;51.060;3.638;2023-03-01T04:34:54;103117.66;;;-2.41;87.57
78613;BME280;67933;51.060;3.638;2023-03-01T04:37:19;103120.75;;;-2.52;87.39
78613;BME280;67933;51.060;3.638;2023-03-01T04:39:45;103124.09;;;-2.56;87.65
78613;BME280;67933;51.060;3.638;2023-03-01T04:42:13;103125.13;;;-2.77;86.40
78613;BME280;67933;51.060;3.638;2023-03-01T04:44:38;103123.91;;;-2.88;87.04
78613;BME280;67933;51.060;3.638;2023-03-01T04:47:03;103125.28;;;-2.97;87.66
78613;BME280;67933;51.060;3.638;2023-03-01T04:49:29;103123.25;;;-3.06;87.20
78613;BME280;67933;51.060;3.638;2023-03-01T04:51:54;103122.81;;;-2.94;87.91
78613;BME280;67933;51.060;3.638;2023-03-01T04:54:20;103125.28;;;-2.97;88.09
78613;BME280;67933;51.060;3.638;2023-03-01T04:56:45;103116.38;;;-2.79;88.01
78613;BME280;67933;51.060;3.638;2023-03-01T04:59:11;103129.75;;;-2.68;87.49
78613;BME280;67933;51.060;3.638;2023-03-01T05:01:37;103117.13;;;-2.57;87.33
78613;BME280;67933;51.060;3.638;2023-03-01T05:04:03;103113.50;;;-2.36;85.99
78613;BME280;67933;51.060;3.638;2023-03-01T05:06:30;103109.25;;;-2.32;85.77
78613;BME280;67933;51.060;3.638;2023-03-01T05:08:56;103115.44;;;-2.28;85.17
78613;BME280;67933;51.060;3.638;2023-03-01T05:11:22;103116.22;;;-2.31;85.55
78613;BME280;67933;51.060;3.638;2023-03-01T05:13:47;103111.41;;;-2.46;85.83
78613;BME280;67933;51.060;3.638;2023-03-01T05:16:15;103112.66;;;-2.35;85.79
78613;BME280;67933;51.060;3.638;2023-03-01T05:18:41;103107.22;;;-2.42;85.51
78613;BME280;67933;51.060;3.638;2023-03-01T05:21:12;103109.91;;;-2.39;85.46
78613;BME280;67933;51.060;3.638;2023-03-01T05:23:41;103107.09;;;-2.45;84.18
78613;BME280;67933;51.060;3.638;2023-03-01T05:26:07;103108.25;;;-2.64;84.55
78613;BME280;67933;51.060;3.638;2023-03-01T05:28:33;103098.94;;;-2.83;84.92
78613;BME280;67933;51.060;3.638;2023-03-01T05:30:58;103089.75;;;-2.73;85.99
78613;BME280;67933;51.060;3.638;2023-03-01T05:33:24;103086.59;;;-2.64;85.92
78613;BME280;67933;51.060;3.638;2023-03-01T05:35:50;103076.69;;;-2.49;86.25
78613;BME280;67933;51.060;3.638;2023-03-01T05:38:18;103071.97;;;-2.34;84.98
78613;BME280;67933;51.060;3.638;2023-03-01T05:40:45;103067.72;;;-2.30;84.78
78613;BME280;67933;51.060;3.638;2023-03-01T05:43:11;103074.56;;;-2.34;85.16
78613;BME280;67933;51.060;3.638;2023-03-01T05:45:38;103052.59;;;-2.44;84.70
78613;BME280;67933;51.060;3.638;2023-03-01T05:48:05;103042.03;;;-2.50;85.41
78613;BME280;67933;51.060;3.638;2023-03-01T05:50:33;103061.81;;;-2.53;83.98
78613;BME280;67933;51.060;3.638;2023-03-01T05:53:02;103065.25;;;-2.81;85.28
78613;BME280;67933;51.060;3.638;2023-03-01T05:55:29;103054.19;;;-3.01;86.10
78613;BME280;67933;51.060;3.638;2023-03-01T05:57:55;103051.06;;;-3.16;86.31
78613;BME280;67933;51.060;3.638;2023-03-01T06:00:21;103051.75;;;-3.22;86.77
78613;BME280;67933;51.060;3.638;2023-03-01T06:02:48;103047.88;;;-3.34;86.71
78613;BME280;67933;51.060;3.638;2023-03-01T06:05:14;103050.34;;;-3.37;86.90
78613;BME280;67933;51.060;3.638;2023-03-01T06:07:40;103050.22;;;-3.40;87.08
78613;BME280;67933;51.060;3.638;2023-03-01T06:10:07;103048.25;;;-3.47;87.77
78613;BME280;67933;51.060;3.638;2023-03-01T06:12:34;103055.94;;;-3.51;87.50
78613;BME280;67933;51.060;3.638;2023-03-01T06:15:01;103055.69;;;-3.58;87.60
78613;BME280;67933;51.060;3.638;2023-03-01T06:17:29;103059.97;;;-3.59;88.00
78613;BME280;67933;51.060;3.638;2023-03-01T06:19:54;103066.06;;;-3.58;88.55
78613;BME280;67933;51.060;3.638;2023-03-01T06:22:20;103065.50;;;-3.50;88.30
78613;BME280;67933;51.060;3.638;2023-03-01T06:24:45;103065.50;;;-3.50;87.17
78613;BME280;67933;51.060;3.638;2023-03-01T06:27:11;103067.41;;;-3.44;87.77
78613;BME280;67933;51.060;3.638;2023-03-01T06:29:36;103065.59;;;-3.46;87.46
78613;BME280;67933;51.060;3.638;2023-03-01T06:32:02;103070.50;;;-3.54;87.99
78613;BME280;67933;51.060;3.638;2023-03-01T06:34:28;103070.50;;;-3.54;87.97
78613;BME280;67933;51.060;3.638;2023-03-01T06:36:53;103073.97;;;-3.54;88.92
78613;BME280;67933;51.060;3.638;2023-03-01T06:39:19;103072.22;;;-3.55;88.23
78613;BME280;67933;51.060;3.638;2023-03-01T06:41:44;103065.25;;;-3.56;88.82
78613;BME280;67933;51.060;3.638;2023-03-01T06:44:10;103071.31;;;-3.57;89.11
78613;BME280;67933;51.060;3.638;2023-03-01T06:46:35;103070.50;;;-3.54;88.89
78613;BME280;67933;51.060;3.638;2023-03-01T06:49:02;103076.75;;;-3.49;88.48
78613;BME280;67933;51.060;3.638;2023-03-01T06:51:32;103075.97;;;-3.46;88.72
78613;BME280;67933;51.060;3.638;2023-03-01T06:53:58;103071.09;;;-3.37;89.11
78613;BME280;67933;51.060;3.638;2023-03-01T06:56:23;103071.38;;;-3.30;89.34
78613;BME280;67933;51.060;3.638;2023-03-01T06:58:48;103074.09;;;-3.27;88.81
78613;BME280;67933;51.060;3.638;2023-03-01T07:01:14;103062.09;;;-3.23;88.99
78613;BME280;67933;51.060;3.638;2023-03-01T07:03:39;103084.13;;;-3.12;88.78
78613;BME280;67933;51.060;3.638;2023-03-01T07:06:05;103081.09;;;-2.99;88.71
78613;BME280;67933;51.060;3.638;2023-03-01T07:08:30;103079.00;;;-2.84;88.73
78613;BME280;67933;51.060;3.638;2023-03-01T07:10:57;103090.72;;;-2.69;88.19
78613;BME280;67933;51.060;3.638;2023-03-01T07:13:22;103086.13;;;-2.51;87.70
78613;BME280;67933;51.060;3.638;2023-03-01T07:15:47;103068.66;;;-2.28;87.64
78613;BME280;67933;51.060;3.638;2023-03-01T07:18:13;103072.81;;;-1.45;86.27
78613;BME280;67933;51.060;3.638;2023-03-01T07:20:38;103075.44;;;-0.44;82.58
78613;BME280;67933;51.060;3.638;2023-03-01T07:23:05;103069.66;;;0.52;79.05
78613;BME280;67933;51.060;3.638;2023-03-01T07:25:31;103077.84;;;1.19;76.56
78613;BME280;67933;51.060;3.638;2023-03-01T07:27:57;103074.34;;;1.74;72.70
78613;BME280;67933;51.060;3.638;2023-03-01T07:30:24;103071.63;;;2.29;71.44
78613;BME280;67933;51.060;3.638;2023-03-01T07:32:52;103060.75;;;2.70;68.84
78613;BME280;67933;51.060;3.638;2023-03-01T07:35:20;103057.66;;;3.15;69.07
78613;BME280;67933;51.060;3.638;2023-03-01T07:37:45;103056.13;;;3.44;68.30
78613;BME280;67933;51.060;3.638;2023-03-01T07:40:12;103052.06;;;3.91;65.89
78613;BME280;67933;51.060;3.638;2023-03-01T07:42:37;103057.53;;;4.33;63.03
78613;BME280;67933;51.060;3.638;2023-03-01T07:45:04;103056.66;;;4.49;61.96
78613;BME280;67933;51.060;3.638;2023-03-01T07:47:30;103052.41;;;4.98;61.00
78613;BME280;67933;51.060;3.638;2023-03-01T07:49:56;103043.63;;;5.22;59.59
78613;BME280;67933;51.060;3.638;2023-03-01T07:52:21;103043.59;;;5.59;59.44
78613;BME280;67933;51.060;3.638;2023-03-01T07:54:47;103039.22;;;5.53;57.15
78613;BME280;67933;51.060;3.638;2023-03-01T07:57:12;103040.94;;;5.78;56.01
78613;BME280;67933;51.060;3.638;2023-03-01T07:59:38;103037.41;;;5.82;56.27
78613;BME280;67933;51.060;3.638;2023-03-01T08:02:03;103028.59;;;5.99;55.40
78613;BME280;67933;51.060;3.638;2023-03-01T08:04:28;103030.16;;;6.48;54.26
78613;BME280;67933;51.060;3.638;2023-03-01T08:06:55;103045.69;;;6.89;54.78
78613;BME280;67933;51.060;3.638;2023-03-01T08:09:21;103043.91;;;6.93;52.58
78613;BME280;67933;51.060;3.638;2023-03-01T08:11:46;103039.50;;;6.92;52.35
78613;BME280;67933;51.060;3.638;2023-03-01T08:14:11;103046.50;;;7.02;51.88
78613;BME280;67933;51.060;3.638;2023-03-01T08:16:37;103040.09;;;7.30;50.54
78613;BME280;67933;51.060;3.638;2023-03-01T08:19:07;103043.16;;;7.77;49.26
78613;BME280;67933;51.060;3.638;2023-03-01T08:21:33;103044.97;;;7.70;49.76
78613;BME280;67933;51.060;3.638;2023-03-01T08:24:06;103047.38;;;7.93;49.22
78613;BME280;67933;51.060;3.638;2023-03-01T08:26:32;103038.28;;;8.17;47.30
78613;BME280;67933;51.060;3.638;2023-03-01T08:28:58;103042.50;;;8.36;47.35
78613;BME280;67933;51.060;3.638;2023-03-01T08:31:30;103024.06;;;8.90;45.38
78613;BME280;67933;51.060;3.638;2023-03-01T08:33:58;103031.03;;;8.94;44.92
78613;BME280;67933;51.060;3.638;2023-03-01T08:36:26;103029.78;;;9.17;44.98
78613;BME280;67933;51.060;3.638;2023-03-01T08:38:52;103028.25;;;9.53;43.74
78613;BME280;67933;51.060;3.638;2023-03-01T08:41:18;103029.13;;;9.54;44.29
78613;BME280;67933;51.060;3.638;2023-03-01T08:43:44;103019.69;;;9.39;41.96
78613;BME280;67933;51.060;3.638;2023-03-01T08:46:11;103010.22;;;9.74;38.97
78613;BME280;67933;51.060;3.638;2023-03-01T08:48:36;103017.72;;;9.50;38.08
78613;BME280;67933;51.060;3.638;2023-03-01T08:51:14;103004.63;;;9.43;39.12
78613;BME280;67933;51.060;3.638;2023-03-01T08:53:40;103013.16;;;9.58;39.26
78613;BME280;67933;51.060;3.638;2023-03-01T08:56:07;103006.28;;;9.93;39.19
78613;BME280;67933;51.060;3.638;2023-03-01T08:58:33;103007.91;;;10.00;37.30
78613;BME280;67933;51.060;3.638;2023-03-01T09:00:58;103007.41;;;10.24;38.49
78613;BME280;67933;51.060;3.638;2023-03-01T09:03:24;102996.97;;;10.15;36.63
78613;BME280;67933;51.060;3.638;2023-03-01T09:05:51;102998.84;;;10.10;36.81
78613;BME280;67933;51.060;3.638;2023-03-01T09:08:17;102991.00;;;10.46;36.63
78613;BME280;67933;51.060;3.638;2023-03-01T09:10:43;102990.09;;;10.48;36.78
78613;BME280;67933;51.060;3.638;2023-03-01T09:13:09;102986.97;;;10.68;36.59
78613;BME280;67933;51.060;3.638;2023-03-01T09:15:39;102977.72;;;10.47;36.27
78613;BME280;67933;51.060;3.638;2023-03-01T09:18:05;102990.53;;;10.28;36.00
78613;BME280;67933;51.060;3.638;2023-03-01T09:20:31;102981.06;;;10.55;36.73
78613;BME280;67933;51.060;3.638;2023-03-01T09:22:57;102978.91;;;10.72;35.45
78613;BME280;67933;51.060;3.638;2023-03-01T09:25:23;102983.19;;;11.13;36.06
78613;BME280;67933;51.060;3.638;2023-03-01T09:27:51;102978.00;;;11.07;34.38
78613;BME280;67933;51.060;3.638;2023-03-01T09:30:17;102987.88;;;11.02;35.51
78613;BME280;67933;51.060;3.638;2023-03-01T09:32:42;102981.53;;;10.74;35.23
78613;BME280;67933;51.060;3.638;2023-03-01T09:35:10;102974.63;;;11.01;33.15
78613;BME280;67933;51.060;3.638;2023-03-01T09:37:35;102989.16;;;10.88;33.70
78613;BME280;67933;51.060;3.638;2023-03-01T09:40:06;102973.13;;;10.54;35.18
78613;BME280;67933;51.060;3.638;2023-03-01T09:45:34;102969.06;;;11.11;33.81
78613;BME280;67933;51.060;3.638;2023-03-01T09:48:01;102968.38;;;11.37;33.63
78613;BME280;67933;51.060;3.638;2023-03-01T09:50:33;102966.81;;;11.30;32.80
78613;BME280;67933;51.060;3.638;2023-03-01T09:53:11;102960.34;;;11.39;32.79
78613;BME280;67933;51.060;3.638;2023-03-01T09:55:54;102953.22;;;11.41;33.63
78613;BME280;67933;51.060;3.638;2023-03-01T09:58:51;102951.63;;;11.34;32.69
78613;BME280;67933;51.060;3.638;2023-03-01T10:01:24;102947.84;;;11.76;31.65
78613;BME280;67933;51.060;3.638;2023-03-01T10:04:04;102933.28;;;11.88;32.57
78613;BME280;67933;51.060;3.638;2023-03-01T10:06:33;102931.19;;;11.68;31.89
78613;BME280;67933;51.060;3.638;2023-03-01T10:09:05;102951.47;;;11.71;32.22
78613;BME280;67933;51.060;3.638;2023-03-01T10:11:42;102946.16;;;12.02;32.65
78613;BME280;67933;51.060;3.638;2023-03-01T10:19:43;102930.78;;;11.83;32.21
78613;BME280;67933;51.060;3.638;2023-03-01T10:22:20;102941.28;;;12.71;31.76
78613;BME280;67933;51.060;3.638;2023-03-01T10:24:50;102931.41;;;12.75;30.00
78613;BME280;67933;51.060;3.638;2023-03-01T10:27:34;102920.84;;;12.98;30.44
78613;BME280;67933;51.060;3.638;2023-03-01T10:32:42;102915.50;;;13.49;28.92
78613;BME280;67933;51.060;3.638;2023-03-01T10:35:35;102905.72;;;13.25;27.73
78613;BME280;67933;51.060;3.638;2023-03-01T10:38:07;102905.97;;;13.18;28.61
78613;BME280;67933;51.060;3.638;2023-03-01T10:40:35;102890.47;;;13.77;28.46
78613;BME280;67933;51.060;3.638;2023-03-01T10:43:04;102900.06;;;14.26;29.37
78613;BME280;67933;51.060;3.638;2023-03-01T10:45:34;102895.31;;;13.89;28.41
78613;BME280;67933;51.060;3.638;2023-03-01T10:50:45;102896.22;;;14.11;28.66
78613;BME280;67933;51.060;3.638;2023-03-01T10:53:22;102902.88;;;14.23;25.73
78613;BME280;67933;51.060;3.638;2023-03-01T10:56:00;102897.13;;;14.55;27.02
78613;BME280;67933;51.060;3.638;2023-03-01T10:58:27;102879.84;;;14.42;26.40
78613;BME280;67933;51.060;3.638;2023-03-01T11:01:01;102884.59;;;14.34;27.02
78613;BME280;67933;51.060;3.638;2023-03-01T11:08:36;102865.53;;;14.65;26.71
78613;BME280;67933;51.060;3.638;2023-03-01T11:14:00;102870.75;;;14.48;26.46
78613;BME280;67933;51.060;3.638;2023-03-01T11:16:25;102863.94;;;14.81;26.15
78613;BME280;67933;51.060;3.638;2023-03-01T11:18:59;102866.72;;;15.00;25.85
78613;BME280;67933;51.060;3.638;2023-03-01T11:21:25;102864.88;;;15.21;26.67
78613;BME280;67933;51.060;3.638;2023-03-01T11:23:53;102857.75;;;15.60;24.73
78613;BME280;67933;51.060;3.638;2023-03-01T11:26:19;102861.00;;;14.87;26.03
78613;BME280;67933;51.060;3.638;2023-03-01T11:28:50;102856.75;;;14.83;24.83
78613;BME280;67933;51.060;3.638;2023-03-01T11:31:17;102858.50;;;14.42;24.74
78613;BME280;67933;51.060;3.638;2023-03-01T11:33:57;102850.84;;;14.95;23.80
78613;BME280;67933;51.060;3.638;2023-03-01T11:37:01;102842.19;;;14.90;24.42
78613;BME280;67933;51.060;3.638;2023-03-01T11:39:51;102849.44;;;15.27;24.47
78613;BME280;67933;51.060;3.638;2023-03-01T11:42:21;102845.53;;;15.73;24.94
78613;BME280;67933;51.060;3.638;2023-03-01T11:44:52;102847.34;;;15.54;25.34
78613;BME280;67933;51.060;3.638;2023-03-01T12:00:58;102820.56;;;15.92;24.25
78613;BME280;67933;51.060;3.638;2023-03-01T12:03:55;102811.22;;;16.88;24.27
78613;BME280;67933;51.060;3.638;2023-03-01T12:06:39;102803.97;;;16.55;24.24
78613;BME280;67933;51.060;3.638;2023-03-01T12:18:02;102789.44;;;15.89;26.25
78613;BME280;67933;51.060;3.638;2023-03-01T12:23:54;102776.03;;;16.42;25.01
78613;BME280;67933;51.060;3.638;2023-03-01T12:26:31;102783.31;;;16.23;25.16
78613;BME280;67933;51.060;3.638;2023-03-01T12:31:57;102776.97;;;16.07;25.45
78613;BME280;67933;51.060;3.638;2023-03-01T12:42:25;102759.44;;;15.26;26.40
78613;BME280;67933;51.060;3.638;2023-03-01T12:44:57;102759.88;;;15.36;26.46
78613;BME280;67933;51.060;3.638;2023-03-01T12:50:37;102752.78;;;14.97;26.87
78613;BME280;67933;51.060;3.638;2023-03-01T12:53:04;102748.13;;;15.59;26.89
78613;BME280;67933;51.060;3.638;2023-03-01T12:55:36;102731.22;;;15.94;26.10
78613;BME280;67933;51.060;3.638;2023-03-01T13:01:03;102739.94;;;15.98;26.80
78613;BME280;67933;51.060;3.638;2023-03-01T13:06:19;102719.03;;;16.23;25.34
78613;BME280;67933;51.060;3.638;2023-03-01T13:08:59;102717.84;;;16.29;25.70
78613;BME280;67933;51.060;3.638;2023-03-01T13:11:29;102716.34;;;16.40;24.78
78613;BME280;67933;51.060;3.638;2023-03-01T13:16:54;102709.69;;;15.96;26.54
78613;BME280;67933;51.060;3.638;2023-03-01T13:19:25;102713.41;;;15.20;26.69
78613;BME280;67933;51.060;3.638;2023-03-01T13:21:53;102702.81;;;14.60;27.82
78613;BME280;67933;51.060;3.638;2023-03-01T13:32:41;102677.00;;;13.99;29.07
78613;BME280;67933;51.060;3.638;2023-03-01T13:37:45;102678.78;;;14.40;27.77
78613;BME280;67933;51.060;3.638;2023-03-01T13:42:50;102669.75;;;14.63;27.02
78613;BME280;67933;51.060;3.638;2023-03-01T13:47:45;102674.16;;;14.44;27.67
78613;BME280;67933;51.060;3.638;2023-03-01T13:50:23;102669.19;;;13.94;28.44
78613;BME280;67933;51.060;3.638;2023-03-01T13:53:04;102656.31;;;13.83;29.49
78613;BME280;67933;51.060;3.638;2023-03-01T13:55:42;102658.44;;;13.32;30.13
78613;BME280;67933;51.060;3.638;2023-03-01T13:58:28;102663.66;;;13.57;30.24
78613;BME280;67933;51.060;3.638;2023-03-01T14:01:01;102665.81;;;13.25;29.96
78613;BME280;67933;51.060;3.638;2023-03-01T14:03:28;102664.91;;;13.26;30.75
78613;BME280;67933;51.060;3.638;2023-03-01T14:06:02;102667.13;;;13.15;30.27
78613;BME280;67933;51.060;3.638;2023-03-01T14:08:29;102659.09;;;13.38;30.30
78613;BME280;67933;51.060;3.638;2023-03-01T14:14:10;102649.41;;;12.91;30.58
78613;BME280;67933;51.060;3.638;2023-03-01T14:19:24;102627.03;;;12.95;30.70
78613;BME280;67933;51.060;3.638;2023-03-01T14:24:48;102623.69;;;12.43;31.50
78613;BME280;67933;51.060;3.638;2023-03-01T14:27:14;102623.59;;;12.46;30.76
78613;BME280;67933;51.060;3.638;2023-03-01T14:29:40;102630.38;;;12.30;31.12
78613;BME280;67933;51.060;3.638;2023-03-01T14:32:20;102625.59;;;11.90;32.02
78613;BME280;67933;51.060;3.638;2023-03-01T14:34:48;102623.34;;;11.78;32.72
78613;BME280;67933;51.060;3.638;2023-03-01T14:37:30;102620.34;;;12.13;33.18
78613;BME280;67933;51.060;3.638;2023-03-01T14:39:58;102615.94;;;12.60;32.38
78613;BME280;67933;51.060;3.638;2023-03-01T14:42:26;102605.34;;;12.36;31.25
78613;BME280;67933;51.060;3.638;2023-03-01T14:44:54;102605.13;;;12.17;32.20
78613;BME280;67933;51.060;3.638;2023-03-01T14:47:34;102608.41;;;11.47;33.64